Time;durP1;ratioP1;P1;durP2;ratioP2;P2;SDS_P1;SDS_P2;PMS_P1;PMS_P2;Temp;Humidity;BMP_temperature;BMP_pressure;BME280_temperature;BME280_humidity;BME280_pressure;Samples;Min_cycle;Max_cycle;Signal;HPM_P1;HPM_P2
2022/09/01 00:01:48;;;;;;;5.72;4.12;;;;;;;17.66;76.43;99652.05;1776227;79;22080;-64
2022/09/01 00:04:18;;;;;;;5.53;3.62;;;;;;;17.68;76.37;99647.47;1773268;78;21614;-64
2022/09/01 00:06:47;;;;;;;4.85;3.87;;;;;;;17.68;76.31;99653.28;1772333;78;20973;-64
2022/09/01 00:09:18;;;;;;;7.35;4.22;;;;;;;17.70;76.66;99653.52;1779733;79;21025;-64
2022/09/01 00:11:47;;;;;;;5.53;4.00;;;;;;;17.73;76.39;99651.14;1775975;78;21492;-64
2022/09/01 00:14:14;;;;;;;6.00;3.60;;;;;;;17.78;76.46;99649.47;1774071;78;21852;-64
2022/09/01 00:16:42;;;;;;;6.00;3.85;;;;;;;17.83;76.06;99648.66;1770324;78;21442;-64
2022/09/01 00:19:09;;;;;;;6.12;3.90;;;;;;;17.86;76.31;99652.47;1773904;78;21004;-64
2022/09/01 00:21:39;;;;;;;4.13;3.77;;;;;;;17.87;75.92;99650.16;1779292;79;21455;-65
2022/09/01 00:24:07;;;;;;;4.90;3.70;;;;;;;17.90;75.78;99656.11;1768830;78;21855;-66
2022/09/01 00:26:34;;;;;;;4.60;3.67;;;;;;;17.92;75.26;99654.67;1768423;78;22281;-66
2022/09/01 00:29:00;;;;;;;4.05;3.25;;;;;;;17.91;75.30;99652.95;1777660;78;21469;-66
2022/09/01 00:31:27;;;;;;;5.17;2.90;;;;;;;17.94;74.75;99644.77;1775746;78;21032;-66
2022/09/01 00:33:54;;;;;;;4.78;2.87;;;;;;;17.98;74.48;99650.72;1770198;79;21448;-66
2022/09/01 00:36:22;;;;;;;3.35;2.72;;;;;;;18.01;74.21;99647.35;1779865;78;21554;-66
2022/09/01 00:38:50;;;;;;;4.65;2.87;;;;;;;18.03;73.79;99648.57;1777223;78;21533;-66
2022/09/01 00:41:19;;;;;;;5.22;3.25;;;;;;;18.04;73.61;99651.09;1777191;78;21476;-67
2022/09/01 00:43:51;;;;;;;3.05;2.60;;;;;;;18.04;73.12;99657.74;1760142;78;21540;-66
2022/09/01 00:46:27;;;;;;;6.67;2.75;;;;;;;18.05;73.09;99658.62;1765942;79;22818;-66
2022/09/01 00:49:02;;;;;;;3.55;2.45;;;;;;;18.05;73.08;99666.59;1768380;80;21383;-66
2022/09/01 00:51:29;;;;;;;3.17;2.72;;;;;;;18.11;72.58;99660.81;1761050;79;21775;-68
2022/09/01 00:53:56;;;;;;;4.30;2.40;;;;;;;18.08;72.99;99657.04;1764259;80;20978;-66
2022/09/01 00:56:23;;;;;;;2.60;2.40;;;;;;;18.07;72.99;99654.03;1762855;79;21486;-67
2022/09/01 00:58:50;;;;;;;2.90;2.50;;;;;;;18.05;72.90;99651.97;1754166;79;21395;-66
2022/09/01 01:01:17;;;;;;;2.45;2.20;;;;;;;18.08;71.87;99657.04;1754339;79;21552;-67
2022/09/01 01:03:46;;;;;;;5.43;2.67;;;;;;;18.07;71.62;99658.02;1757188;80;21864;-67
2022/09/01 01:06:15;;;;;;;5.42;2.50;;;;;;;18.09;71.60;99658.75;1757484;79;21530;-67
2022/09/01 01:08:56;;;;;;;3.55;2.70;;;;;;;18.07;71.26;99655.36;1748096;80;21459;-67
2022/09/01 01:11:18;;;;;;;5.45;2.47;;;;;;;18.09;71.20;99664.08;1755418;79;21036;-67
2022/09/01 01:14:10;;;;;;;2.80;2.47;;;;;;;18.04;71.16;99660.41;1759154;79;21501;-67
2022/09/01 01:16:34;;;;;;;4.85;2.92;;;;;;;18.02;71.01;99661.49;1767587;80;21741;-65
2022/09/01 01:19:01;;;;;;;3.62;2.90;;;;;;;17.96;71.19;99662.80;1764736;79;21430;-65
2022/09/01 01:24:33;;;;;;;3.30;3.00;;;;;;;17.98;71.51;99672.00;1763495;80;21537;-65
2022/09/01 01:26:59;;;;;;;4.58;2.92;;;;;;;17.95;71.45;99668.22;1755594;79;21394;-66
2022/09/01 01:29:36;;;;;;;4.58;2.70;;;;;;;17.93;71.34;99667.48;1765079;79;22211;-64
2022/09/01 01:32:12;;;;;;;6.00;3.30;;;;;;;17.95;70.78;99658.91;1750688;79;21597;-65
2022/09/01 01:34:33;;;;;;;4.12;2.87;;;;;;;17.94;71.00;99658.06;1709203;81;21256;-65
2022/09/01 01:37:00;;;;;;;3.83;2.87;;;;;;;17.96;71.15;99657.47;1759279;79;21463;-65
2022/09/01 01:39:27;;;;;;;4.10;2.87;;;;;;;17.92;71.72;99653.83;1761522;80;21560;-65
2022/09/01 01:41:57;;;;;;;5.72;3.17;;;;;;;17.94;71.96;99655.41;1758858;80;21713;-66
2022/09/01 01:44:27;;;;;;;5.37;3.58;;;;;;;17.91;72.09;99656.95;1763698;79;21466;-65
2022/09/01 01:46:56;;;;;;;4.85;3.42;;;;;;;17.90;72.51;99657.93;1736057;80;21663;-65
2022/09/01 01:49:29;;;;;;;6.50;3.47;;;;;;;17.92;72.43;99656.00;1750520;80;21532;-65
2022/09/01 01:51:55;;;;;;;3.75;3.30;;;;;;;17.88;72.71;99655.38;1719489;82;21080;-65
2022/09/01 01:54:25;;;;;;;4.55;3.58;;;;;;;17.85;72.86;99654.75;1743504;80;22298;-65
2022/09/01 01:56:54;;;;;;;7.10;4.08;;;;;;;17.81;73.16;99651.42;1716785;81;21612;-65
2022/09/01 01:59:23;;;;;;;6.87;4.25;;;;;;;17.77;72.70;99648.63;1719697;82;20982;-65
2022/09/01 02:01:49;;;;;;;7.12;4.70;;;;;;;17.76;72.94;99649.57;1711576;82;21481;-65
2022/09/01 02:04:18;;;;;;;6.60;4.47;;;;;;;17.72;73.22;99648.10;1746974;80;21509;-65
2022/09/01 02:06:46;;;;;;;6.05;4.53;;;;;;;17.67;72.98;99648.45;1748419;80;21817;-66
2022/09/01 02:09:18;;;;;;;5.55;4.47;;;;;;;17.63;72.82;99642.12;1724354;81;21509;-67
2022/09/01 02:11:46;;;;;;;6.25;4.60;;;;;;;17.56;72.94;99650.19;1670030;83;21558;-65
2022/09/01 02:14:14;;;;;;;10.03;5.08;;;;;;;17.51;73.16;99647.36;1729043;81;21489;-65
2022/09/01 02:16:41;;;;;;;7.60;4.58;;;;;;;17.43;73.32;99653.70;1735263;81;21437;-66
2022/09/01 02:19:11;;;;;;;6.83;4.65;;;;;;;17.25;73.71;99643.92;1721902;81;22111;-66
2022/09/01 02:21:43;;;;;;;6.90;5.00;;;;;;;17.09;74.65;99648.11;1721169;82;21528;-65
2022/09/01 02:24:07;;;;;;;6.17;4.70;;;;;;;16.98;75.23;99652.00;1707185;82;21499;-65
2022/09/01 02:26:38;;;;;;;6.47;4.92;;;;;;;16.90;75.69;99648.55;1725942;82;21444;-65
2022/09/01 02:29:16;;;;;;;5.35;4.50;;;;;;;16.84;76.40;99646.77;1720300;81;20991;-65
2022/09/01 02:31:39;;;;;;;7.95;4.67;;;;;;;16.81;76.81;99639.84;1718377;82;21890;-66
2022/09/01 02:34:09;;;;;;;7.55;4.80;;;;;;;16.88;76.93;99642.49;1724505;81;21404;-65
2022/09/01 02:36:46;;;;;;;7.42;4.75;;;;;;;16.88;76.71;99635.02;1728284;81;21470;-65
2022/09/01 02:39:07;;;;;;;7.35;4.30;;;;;;;16.89;76.51;99636.70;1720510;82;21433;-65
2022/09/01 02:41:34;;;;;;;6.12;4.58;;;;;;;16.89;76.70;99639.34;1725313;81;23646;-64
2022/09/01 02:44:10;;;;;;;6.22;4.50;;;;;;;16.87;76.86;99643.92;1723389;81;21753;-65
2022/09/01 02:46:32;;;;;;;6.30;4.80;;;;;;;16.86;76.85;99647.06;1753719;80;21446;-65
2022/09/01 02:48:59;;;;;;;6.12;4.33;;;;;;;16.85;76.94;99641.36;1777782;78;20953;-66
2022/09/01 02:51:26;;;;;;;6.75;5.30;;;;;;;16.77;77.30;99650.80;1777064;78;22116;-64
2022/09/01 02:53:53;;;;;;;7.28;4.78;;;;;;;16.73;77.60;99650.16;1771056;78;21680;-64
2022/09/01 02:56:21;;;;;;;;;;;;;;;16.68;77.51;99650.45;1774070;78;21474;-64
2022/09/01 02:58:49;;;;;;;5.30;3.72;;;;;;;16.58;79.76;99654.70;1787858;78;20410;-64
2022/09/01 03:01:23;;;;;;;4.97;4.12;;;;;;;16.52;78.33;99651.14;1767551;78;21486;-65
2022/09/01 03:03:52;;;;;;;5.58;3.87;;;;;;;16.52;78.37;99658.61;1774696;78;20944;-65
2022/09/01 03:06:19;;;;;;;4.58;4.17;;;;;;;16.50;78.36;99655.67;1766293;78;21490;-64
2022/09/01 03:08:46;;;;;;;8.10;3.80;;;;;;;16.44;78.78;99663.56;1779248;78;21755;-64
2022/09/01 03:11:15;;;;;;;5.40;3.85;;;;;;;16.41;78.97;99662.47;1768616;78;21533;-64
2022/09/01 03:13:41;;;;;;;4.70;3.95;;;;;;;16.42;79.03;99672.11;1778533;80;20986;-64
2022/09/01 03:16:08;;;;;;;6.10;3.90;;;;;;;16.39;78.79;99664.83;1773576;78;21446;-64
2022/09/01 03:18:35;;;;;;;6.45;4.45;;;;;;;16.34;78.75;99671.30;1767011;78;21098;-64
2022/09/01 03:21:02;;;;;;;6.50;3.80;;;;;;;16.28;78.95;99674.36;1785479;78;21669;-64
2022/09/01 03:23:34;;;;;;;5.92;4.42;;;;;;;16.23;78.83;99672.48;1775475;78;21463;-64
2022/09/01 03:25:59;;;;;;;6.12;3.85;;;;;;;16.23;78.83;99672.48;1787191;78;21470;-66
2022/09/01 03:28:26;;;;;;;6.35;4.08;;;;;;;16.25;78.92;99677.69;1774209;78;21457;-65
2022/09/01 03:30:54;;;;;;;4.37;3.98;;;;;;;16.27;79.15;99678.44;1781681;78;21420;-64
2022/09/01 03:33:24;;;;;;;5.10;3.77;;;;;;;16.26;79.33;99672.28;1771119;78;21451;-64
2022/09/01 03:35:51;;;;;;;5.22;4.15;;;;;;;16.30;79.45;99668.96;1766772;78;21434;-64
2022/09/01 03:38:22;;;;;;;;;;;;;;;16.29;79.40;99672.09;1774931;78;21544;-66
2022/09/01 03:40:53;;;;;;;5.37;4.00;;;;;;;16.24;81.37;99676.00;1785505;78;20454;-64
2022/09/01 03:43:23;;;;;;;7.67;3.95;;;;;;;16.24;79.64;99681.31;1771684;78;21575;-64
2022/09/01 03:45:48;;;;;;;5.97;4.37;;;;;;;16.25;79.59;99679.02;1776538;78;21881;-64
2022/09/01 03:48:16;;;;;;;6.70;4.75;;;;;;;16.26;80.20;99690.02;1775634;78;21497;-64
2022/09/01 03:50:44;;;;;;;6.28;4.53;;;;;;;16.29;79.96;99677.41;1780466;78;21435;-64
2022/09/01 03:53:15;;;;;;;6.57;4.50;;;;;;;16.30;80.12;99677.77;1768122;78;21505;-64
2022/09/01 03:55:44;;;;;;;7.15;4.47;;;;;;;16.32;80.07;99671.88;1783886;78;21405;-64
2022/09/01 03:58:13;;;;;;;8.93;4.35;;;;;;;16.37;80.06;99669.39;1780399;79;22151;-64
2022/09/01 04:00:42;;;;;;;5.85;4.67;;;;;;;16.43;79.78;99676.48;1781535;79;21478;-63
2022/09/01 04:03:11;;;;;;;6.42;4.65;;;;;;;16.47;79.43;99683.76;1784220;78;21062;-63
2022/09/01 04:05:43;;;;;;;5.78;4.75;;;;;;;16.49;79.46;99688.00;1767233;78;21631;-63
2022/09/01 04:08:11;;;;;;;7.20;5.33;;;;;;;16.50;79.70;99691.05;1783499;78;21568;-63
2022/09/01 04:10:49;;;;;;;5.97;4.78;;;;;;;16.55;79.24;99697.36;1777327;78;21981;-63
2022/09/01 04:13:29;;;;;;;7.83;5.08;;;;;;;16.58;79.15;99698.49;1731403;80;21030;-62
2022/09/01 04:15:57;;;;;;;10.75;5.35;;;;;;;16.60;78.96;99701.05;1760744;78;21572;-63
2022/09/01 04:18:24;;;;;;;7.42;5.37;;;;;;;16.59;79.21;99705.48;1774941;78;21537;-63
2022/09/01 04:20:56;;;;;;;12.78;5.80;;;;;;;16.65;78.93;99705.09;1782401;78;20926;-63
2022/09/01 04:23:29;;;;;;;10.05;6.33;;;;;;;16.66;78.72;99707.27;1772910;78;21494;-63
2022/09/01 04:26:07;;;;;;;11.50;6.83;;;;;;;16.68;78.25;99706.20;1780539;79;21462;-62
2022/09/01 04:28:33;;;;;;;10.50;6.72;;;;;;;16.69;77.90;99706.59;1772924;78;21403;-63
2022/09/01 04:31:06;;;;;;;8.20;6.72;;;;;;;16.73;77.96;99710.73;1781333;78;21427;-63
2022/09/01 04:33:35;;;;;;;9.85;7.15;;;;;;;16.81;77.43;99707.55;1752423;78;21423;-63
2022/09/01 04:36:01;;;;;;;10.93;6.90;;;;;;;16.91;77.22;99709.13;1776554;78;21754;-63
2022/09/01 04:38:29;;;;;;;11.45;6.85;;;;;;;16.96;76.96;99711.01;1787921;78;20979;-63
2022/09/01 04:40:56;;;;;;;11.40;7.13;;;;;;;16.97;76.72;99711.39;1771989;78;21509;-63
2022/09/01 04:43:23;;;;;;;8.98;7.37;;;;;;;16.99;76.80;99714.80;1791724;78;27103;-63
2022/09/01 04:45:50;;;;;;;9.15;6.72;;;;;;;17.05;76.81;99716.18;1781877;78;21458;-63
2022/09/01 04:48:20;;;;;;;13.03;6.72;;;;;;;17.10;76.64;99707.39;1758190;79;22025;-63
2022/09/01 04:50:48;;;;;;;9.20;7.10;;;;;;;17.16;76.30;99716.30;1793269;78;21036;-64
2022/09/01 04:53:18;;;;;;;8.75;6.58;;;;;;;17.21;76.05;99703.52;1785729;78;21531;-63
2022/09/01 04:55:46;;;;;;;8.98;6.22;;;;;;;17.34;75.51;99706.66;1786927;78;21575;-64
2022/09/01 04:58:19;;;;;;;9.25;6.37;;;;;;;17.44;75.21;99707.25;1794810;78;21479;-64
2022/09/01 05:00:50;;;;;;;8.75;6.28;;;;;;;17.53;74.97;99708.88;1793915;78;22282;-63
2022/09/01 05:03:20;;;;;;;8.65;6.17;;;;;;;17.59;74.48;99714.59;1781674;78;21048;-64
2022/09/01 05:05:59;;;;;;;9.90;6.80;;;;;;;17.65;74.14;99711.52;1780686;78;21385;-63
2022/09/01 05:08:25;;;;;;;10.32;6.97;;;;;;;17.75;73.64;99709.05;1784082;78;21461;-64
2022/09/01 05:10:55;;;;;;;7.90;6.12;;;;;;;17.87;73.34;99713.99;1792450;78;21379;-64
2022/09/01 05:13:28;;;;;;;11.45;6.58;;;;;;;17.90;72.98;99711.97;1787475;78;21726;-64
2022/09/01 05:16:13;;;;;;;11.18;6.05;;;;;;;18.01;72.47;99707.20;1793661;78;21418;-64
2022/09/01 05:18:39;;;;;;;7.95;5.70;;;;;;;18.12;72.37;99704.23;1787662;78;20938;-63
2022/09/01 05:21:10;;;;;;;8.43;5.87;;;;;;;18.21;72.59;99711.54;1787340;78;20985;-63
2022/09/01 05:23:39;;;;;;;8.93;5.17;;;;;;;18.26;72.45;99711.56;1792403;78;21551;-64
2022/09/01 05:26:18;;;;;;;8.83;5.92;;;;;;;18.30;72.63;99708.20;1789563;78;21731;-64
2022/09/01 05:28:48;;;;;;;12.98;6.03;;;;;;;18.40;72.95;99712.36;1781765;78;21476;-63
2022/09/01 05:31:18;;;;;;;10.25;5.15;;;;;;;18.45;72.87;99711.55;1782052;79;21557;-64
2022/09/01 05:33:44;;;;;;;5.90;5.30;;;;;;;18.52;73.03;99714.12;1789284;78;21635;-63
2022/09/01 05:36:12;;;;;;;8.43;5.67;;;;;;;18.61;72.33;99710.77;1757240;79;21382;-63
2022/09/01 05:38:41;;;;;;;10.20;6.00;;;;;;;18.70;72.34;99708.36;1793047;78;21817;-63
2022/09/01 05:41:13;;;;;;;7.90;5.22;;;;;;;18.77;71.49;99712.27;1784101;78;20980;-63
2022/09/01 05:43:44;;;;;;;9.25;6.12;;;;;;;18.86;71.92;99716.93;1789727;78;21516;-63
2022/09/01 05:46:07;;;;;;;7.70;5.45;;;;;;;18.94;71.76;99712.34;1784205;78;21565;-61
2022/09/01 05:48:38;;;;;;;8.30;5.80;;;;;;;18.98;71.12;99706.66;1760278;78;21513;-60
2022/09/01 05:51:06;;;;;;;8.23;5.78;;;;;;;18.99;71.04;99704.86;1769972;78;21767;-62
2022/09/01 05:53:33;;;;;;;11.05;6.37;;;;;;;19.03;71.45;99705.83;1764586;78;21438;-63
2022/09/01 05:56:05;;;;;;;11.22;6.12;;;;;;;19.06;71.02;99703.39;1769816;79;21478;-62
2022/09/01 05:58:30;;;;;;;9.75;6.70;;;;;;;19.06;69.84;99695.41;1766431;78;21486;-63
2022/09/01 06:00:58;;;;;;;11.00;6.53;;;;;;;19.10;69.62;99701.34;1767964;78;21585;-62
2022/09/01 06:03:26;;;;;;;8.98;5.75;;;;;;;19.17;69.06;99699.41;1772079;78;21770;-61
2022/09/01 06:05:54;;;;;;;8.95;6.03;;;;;;;19.22;68.30;99698.58;1770153;78;21028;-61
2022/09/01 06:08:24;;;;;;;8.45;5.25;;;;;;;19.25;68.06;99695.69;1767407;78;21116;-62
2022/09/01 06:10:51;;;;;;;10.08;5.87;;;;;;;19.32;68.14;99698.70;1770816;79;21065;-61
2022/09/01 06:13:20;;;;;;;6.95;5.50;;;;;;;19.32;67.92;99690.70;1777347;78;21551;-61
2022/09/01 06:15:52;;;;;;;10.60;5.33;;;;;;;19.40;68.00;99694.97;1760645;78;21773;-63
2022/09/01 06:18:20;;;;;;;12.98;5.65;;;;;;;19.45;68.07;99691.92;1768467;78;21541;-62
2022/09/01 06:20:49;;;;;;;6.25;4.83;;;;;;;19.52;67.86;99694.97;1784235;78;21450;-64
2022/09/01 06:23:19;;;;;;;5.15;4.12;;;;;;;19.52;67.57;99697.14;1781361;78;21493;-64
2022/09/01 06:25:46;;;;;;;6.05;4.50;;;;;;;19.60;67.43;99695.20;1774867;78;21529;-64
2022/09/01 06:28:17;;;;;;;5.10;3.90;;;;;;;19.67;66.56;99692.41;1765313;78;21741;-64
2022/09/01 06:30:47;;;;;;;6.80;4.50;;;;;;;19.65;65.75;99694.36;1768219;78;21505;-65
2022/09/01 06:33:16;;;;;;;6.42;4.10;;;;;;;19.66;65.51;99693.38;1774208;78;21482;-64
2022/09/01 06:35:46;;;;;;;3.67;3.30;;;;;;;19.76;65.37;99698.38;1776984;78;21573;-63
2022/09/01 06:38:16;;;;;;;4.12;3.02;;;;;;;19.88;64.58;99700.54;1749310;79;21432;-62
2022/09/01 06:40:45;;;;;;;7.22;3.50;;;;;;;19.96;63.52;99696.75;1775090;78;21903;-63
2022/09/01 06:43:12;;;;;;;5.53;3.55;;;;;;;20.05;63.14;99701.00;1768026;78;21589;-63
2022/09/01 06:45:48;;;;;;;7.65;3.77;;;;;;;20.14;62.07;99701.09;1764221;78;21474;-63
2022/09/01 06:48:14;;;;;;;5.35;3.55;;;;;;;20.09;61.85;99695.27;1769455;78;21436;-63
2022/09/01 06:50:41;;;;;;;3.52;2.98;;;;;;;20.17;61.42;99700.85;1752329;80;21478;-62
2022/09/01 06:53:15;;;;;;;4.47;3.30;;;;;;;20.22;60.87;99699.96;1744152;79;21794;-62
2022/09/01 06:55:42;;;;;;;4.08;3.47;;;;;;;20.31;60.20;99705.54;1773443;78;20998;-62
2022/09/01 06:58:14;;;;;;;5.75;3.35;;;;;;;20.39;58.88;99705.25;1763047;78;21470;-63
2022/09/01 07:00:40;;;;;;;7.67;3.50;;;;;;;20.49;58.37;99706.66;1765659;78;21474;-62
2022/09/01 07:03:12;;;;;;;5.80;3.67;;;;;;;20.57;57.71;99713.56;1729726;80;21627;-63
2022/09/01 07:05:46;;;;;;;4.37;3.30;;;;;;;20.67;56.94;99706.99;1758571;78;22092;-62
2022/09/01 07:08:18;;;;;;;3.67;2.67;;;;;;;20.79;56.23;99712.66;1768161;78;21572;-62
2022/09/01 07:10:49;;;;;;;6.67;3.30;;;;;;;20.94;55.55;99705.13;1762143;78;21505;-62
2022/09/01 07:13:24;;;;;;;3.50;2.45;;;;;;;21.05;54.05;99704.22;1772820;78;21510;-62
2022/09/01 07:15:53;;;;;;;6.87;2.80;;;;;;;21.08;52.53;99711.99;1773828;79;21568;-62
2022/09/01 07:18:24;;;;;;;2.75;2.30;;;;;;;21.11;52.00;99709.53;1757031;78;21568;-63
2022/09/01 07:20:51;;;;;;;2.65;2.10;;;;;;;21.16;51.43;99712.67;1769833;78;21502;-61
2022/09/01 07:23:20;;;;;;;3.00;2.52;;;;;;;21.23;50.19;99708.96;1777565;79;27116;-62
2022/09/01 07:25:48;;;;;;;4.62;2.60;;;;;;;21.33;49.91;99720.57;1781499;78;21673;-63
2022/09/01 07:28:32;;;;;;;4.00;2.90;;;;;;;21.47;49.47;99714.88;1760255;79;21674;-63
2022/09/01 07:30:57;;;;;;;3.12;2.45;;;;;;;21.55;48.77;99713.74;1778187;79;21797;-63
2022/09/01 07:33:24;;;;;;;5.45;3.12;;;;;;;21.70;48.36;99716.91;1780761;78;21471;-63
2022/09/01 07:35:56;;;;;;;4.78;3.00;;;;;;;21.79;47.29;99705.86;1757536;78;21600;-63
2022/09/01 07:38:24;;;;;;;3.67;2.60;;;;;;;21.77;47.22;99707.83;1760537;78;21727;-63
2022/09/01 07:40:53;;;;;;;4.33;2.22;;;;;;;21.89;46.08;99713.44;1788231;78;21587;-62
2022/09/01 07:43:24;;;;;;;3.08;2.25;;;;;;;22.11;45.80;99704.34;1737239;79;22951;-63
2022/09/01 07:45:56;;;;;;;3.90;1.98;;;;;;;22.11;45.80;99704.34;1722121;79;21583;-63
2022/09/01 07:48:25;;;;;;;3.52;2.35;;;;;;;22.24;45.39;99701.88;1773559;78;21501;-62
2022/09/01 07:50:55;;;;;;;2.52;1.70;;;;;;;22.38;45.06;99702.84;1765607;78;21472;-63
2022/09/01 07:53:30;;;;;;;1.82;1.62;;;;;;;22.46;43.66;99707.00;1765349;78;20993;-63
2022/09/01 07:55:56;;;;;;;2.10;1.90;;;;;;;22.51;43.25;99704.75;1767427;78;21833;-63
2022/09/01 07:58:27;;;;;;;4.22;1.90;;;;;;;22.52;43.07;99701.06;1699031;82;21521;-62
2022/09/01 08:01:00;;;;;;;3.00;2.45;;;;;;;22.51;42.67;99696.72;1765184;78;21502;-62
2022/09/01 08:03:25;;;;;;;3.85;2.60;;;;;;;22.55;42.88;99702.64;1763502;79;21480;-63
2022/09/01 08:05:56;;;;;;;2.92;2.65;;;;;;;22.57;42.62;99702.00;1767149;78;21465;-62
2022/09/01 08:08:21;;;;;;;6.60;3.12;;;;;;;22.60;42.83;99704.37;1755862;78;21540;-65
2022/09/01 08:10:48;;;;;;;4.17;3.58;;;;;;;22.61;42.51;99703.91;1769003;78;21523;-62
2022/09/01 08:13:16;;;;;;;7.08;3.50;;;;;;;22.57;42.07;99691.78;1772446;79;21029;-63
2022/09/01 08:15:43;;;;;;;8.20;4.47;;;;;;;22.51;41.92;99693.20;1763379;78;21510;-62
2022/09/01 08:18:10;;;;;;;6.60;4.40;;;;;;;22.56;41.67;99690.92;1766960;78;21383;-63
2022/09/01 08:20:40;;;;;;;5.30;3.90;;;;;;;22.57;41.66;99693.97;1758878;80;21812;-62
2022/09/01 08:23:17;;;;;;;4.45;3.90;;;;;;;22.77;41.53;99687.23;1768541;78;21447;-63
2022/09/01 08:25:46;;;;;;;8.85;5.00;;;;;;;22.77;41.53;99687.23;1767675;78;21455;-63
2022/09/01 08:28:13;;;;;;;;;;;;;;;22.79;41.04;99687.44;1767958;80;21540;-61
2022/09/01 08:30:42;;;;;;;8.20;6.08;;;;;;;22.90;39.58;99696.66;1765488;78;20524;-61
2022/09/01 08:33:10;;;;;;;8.35;6.50;;;;;;;22.80;41.31;99693.16;1770847;78;21879;-61
2022/09/01 08:35:41;;;;;;;11.63;7.75;;;;;;;22.80;41.31;99693.16;1767836;78;21553;-62
2022/09/01 08:38:08;;;;;;;13.60;9.18;;;;;;;22.83;40.93;99694.70;1761154;79;21522;-62
2022/09/01 08:40:36;;;;;;;15.43;10.68;;;;;;;22.86;40.49;99697.94;1761753;78;21150;-62
2022/09/01 08:43:36;;;;;;;15.65;10.72;;;;;;;22.80;40.51;99690.48;1767732;78;21515;-62
2022/09/01 08:46:27;;;;;;;15.48;9.80;;;;;;;22.85;40.38;99686.89;1770614;78;21508;-62
2022/09/01 08:49:00;;;;;;;15.43;11.12;;;;;;;22.94;40.04;99683.34;1768537;78;21474;-61
2022/09/01 08:51:55;;;;;;;17.15;12.75;;;;;;;22.96;39.98;99689.04;1769855;78;21478;-63
2022/09/01 08:54:39;;;;;;;20.12;12.43;;;;;;;22.73;39.31;99674.62;1771814;78;21627;-63
2022/09/01 08:57:11;;;;;;;20.05;12.15;;;;;;;22.73;39.31;99674.62;1734491;79;21503;-62
2022/09/01 08:59:56;;;;;;;16.23;12.30;;;;;;;22.74;39.76;99677.66;1784271;79;21811;-63
2022/09/01 09:02:42;;;;;;;20.27;12.05;;;;;;;22.92;39.04;99675.08;1775255;79;21872;-62
2022/09/01 09:05:50;;;;;;;15.50;10.58;;;;;;;22.92;39.04;99675.08;1762047;78;21506;-62
2022/09/01 09:08:28;;;;;;;14.35;10.80;;;;;;;22.99;38.82;99678.04;1758620;78;20974;-62
2022/09/01 09:11:03;;;;;;;15.55;10.65;;;;;;;23.13;38.54;99669.55;1778685;79;21587;-63
2022/09/01 09:14:04;;;;;;;12.53;10.28;;;;;;;23.22;38.10;99679.41;1777975;79;21886;-62
2022/09/01 09:16:41;;;;;;;12.82;8.38;;;;;;;23.14;37.58;99669.91;1778200;78;21393;-63
2022/09/01 09:19:28;;;;;;;15.80;10.18;;;;;;;23.14;37.58;99669.91;1768290;79;21640;-63
2022/09/01 09:21:56;;;;;;;16.60;10.32;;;;;;;23.18;37.31;99678.52;1771255;79;21369;-62
2022/09/01 09:24:55;;;;;;;15.00;11.97;;;;;;;23.26;37.03;99662.52;1773640;79;21566;-62
2022/09/01 09:27:33;;;;;;;15.78;12.15;;;;;;;23.48;36.71;99663.48;1781746;79;21419;-63
2022/09/01 09:30:10;;;;;;;20.17;12.95;;;;;;;23.75;36.15;99664.98;1780389;79;21426;-62
2022/09/01 09:33:03;;;;;;;20.40;12.58;;;;;;;23.75;36.15;99664.98;1785385;78;21549;-63
2022/09/01 09:35:43;;;;;;;15.65;10.82;;;;;;;23.95;36.09;99659.88;1774109;78;21498;-61
2022/09/01 09:41:06;;;;;;;15.83;10.80;;;;;;;24.28;35.28;99657.54;1779785;78;21869;-62
2022/09/01 09:43:42;;;;;;;17.50;11.12;;;;;;;24.31;35.16;99655.03;1778510;79;21467;-62
2022/09/01 09:46:34;;;;;;;22.73;13.65;;;;;;;24.34;35.42;99652.05;1775909;78;21037;-64
2022/09/01 09:49:19;;;;;;;21.15;14.90;;;;;;;24.32;35.37;99654.89;1774245;79;21450;-63
2022/09/01 09:51:53;;;;;;;19.17;13.90;;;;;;;24.22;35.40;99652.76;1759779;78;21454;-64
2022/09/01 09:54:31;;;;;;;19.32;14.15;;;;;;;24.16;35.71;99654.72;1769844;78;21915;-62
2022/09/01 09:57:07;;;;;;;17.70;12.82;;;;;;;24.16;35.71;99654.72;1769914;78;21460;-61
2022/09/01 09:59:38;;;;;;;18.30;12.98;;;;;;;24.02;36.20;99653.42;1767363;78;21394;-67
2022/09/01 10:02:30;;;;;;;16.60;11.38;;;;;;;24.02;36.20;99653.42;1778607;78;21533;-62
2022/09/01 10:04:57;;;;;;;16.75;10.15;;;;;;;23.96;36.23;99654.88;1766826;78;21469;-62
2022/09/01 10:07:29;;;;;;;14.47;9.73;;;;;;;23.93;36.63;99661.04;1767064;78;21986;-64
2022/09/01 10:09:59;;;;;;;11.68;7.75;;;;;;;23.94;36.37;99659.55;1760063;78;21536;-63
2022/09/01 10:12:28;;;;;;;10.85;7.15;;;;;;;24.02;36.39;99653.42;1769858;78;21435;-62
2022/09/01 10:15:02;;;;;;;9.83;6.72;;;;;;;24.20;36.00;99661.47;1763812;78;21547;-62
2022/09/01 10:17:37;;;;;;;8.20;6.00;;;;;;;24.17;35.56;99663.98;1764965;78;21961;-63
2022/09/01 10:20:08;;;;;;;7.40;5.15;;;;;;;24.07;35.37;99653.31;1777254;78;21841;-62
2022/09/01 10:22:36;;;;;;;8.15;4.83;;;;;;;24.07;35.37;99653.31;1769544;78;21509;-62
2022/09/01 10:25:04;;;;;;;;;;;;;;;23.92;35.61;99652.63;1771392;80;21096;-62
2022/09/01 10:27:36;;;;;;;4.78;3.47;;;;;;;23.75;35.66;99663.14;1768574;78;20409;-62
2022/09/01 10:30:15;;;;;;;4.65;3.27;;;;;;;23.75;35.66;99663.14;1783981;78;21562;-62
2022/09/01 10:33:47;;;;;;;4.00;2.95;;;;;;;23.71;35.97;99661.28;1779562;79;23254;-63
2022/09/01 10:36:14;;;;;;;3.33;2.52;;;;;;;23.71;35.97;99661.28;1741873;81;21408;-61
2022/09/01 10:38:41;;;;;;;2.83;2.37;;;;;;;23.86;35.75;99646.02;1701243;83;21907;-61
2022/09/01 10:41:08;;;;;;;4.17;2.25;;;;;;;24.02;35.67;99655.59;1697288;83;21055;-61
2022/09/01 10:43:47;;;;;;;4.47;2.10;;;;;;;24.01;35.28;99646.34;1705458;83;21545;-62
2022/09/01 10:46:25;;;;;;;3.80;1.92;;;;;;;24.13;35.05;99649.64;1702633;83;21474;-61
2022/09/01 10:48:56;;;;;;;2.47;1.60;;;;;;;24.32;34.56;99640.59;1707011;81;21414;-61
2022/09/01 10:51:29;;;;;;;1.40;1.25;;;;;;;24.49;34.28;99642.44;1702773;81;21788;-61
2022/09/01 10:53:57;;;;;;;1.20;1.10;;;;;;;24.53;33.96;99630.91;1704282;83;21064;-62
2022/09/01 10:56:41;;;;;;;2.50;1.50;;;;;;;24.64;33.57;99636.88;1701420;81;21664;-62
2022/09/01 10:59:26;;;;;;;1.57;0.95;;;;;;;24.74;33.43;99635.42;1694629;83;21582;-62
2022/09/01 11:02:14;;;;;;;2.10;1.07;;;;;;;24.79;32.95;99630.43;1689507;83;21428;-62
2022/09/01 11:04:53;;;;;;;1.20;1.10;;;;;;;24.80;33.27;99630.76;1691172;83;21803;-62
2022/09/01 11:07:34;;;;;;;3.37;1.52;;;;;;;24.95;33.71;99628.33;1685767;83;21576;-60
2022/09/01 11:10:25;;;;;;;2.72;1.45;;;;;;;25.05;33.17;99628.22;1693909;83;21534;-62
2022/09/01 11:13:19;;;;;;;1.87;1.00;;;;;;;25.17;32.68;99628.30;1693964;83;21605;-61
2022/09/01 11:15:46;;;;;;;1.30;0.82;;;;;;;25.28;32.38;99627.69;1696665;83;21435;-61
2022/09/01 11:18:28;;;;;;;2.87;1.10;;;;;;;25.41;32.19;99624.92;1692695;82;21964;-62
2022/09/01 11:21:11;;;;;;;1.20;0.70;;;;;;;25.49;31.95;99623.27;1690255;82;21676;-61
2022/09/01 11:23:37;;;;;;;1.20;0.82;;;;;;;25.41;31.32;99610.59;1663982;82;21571;-61
2022/09/01 11:26:34;;;;;;;2.40;0.95;;;;;;;25.28;31.68;99612.42;1697086;82;21537;-61
2022/09/01 11:29:01;;;;;;;2.45;1.00;;;;;;;25.32;31.60;99609.73;1664934;83;21436;-62
2022/09/01 11:31:31;;;;;;;4.60;0.98;;;;;;;25.32;31.51;99612.94;1668120;84;22143;-62
2022/09/01 11:34:20;;;;;;;1.87;0.80;;;;;;;25.27;31.74;99612.57;1676648;83;21511;-62
2022/09/01 11:36:54;;;;;;;0.72;0.70;;;;;;;25.20;31.75;99614.54;1663601;84;21473;-63
2022/09/01 11:39:31;;;;;;;1.95;0.90;;;;;;;25.09;31.83;99611.27;1670923;83;21572;-63
2022/09/01 11:42:13;;;;;;;1.27;0.78;;;;;;;25.01;32.05;99615.59;1674169;83;21663;-65
2022/09/01 11:45:03;;;;;;;1.77;0.95;;;;;;;25.03;31.75;99615.44;1676463;83;21758;-63
2022/09/01 11:47:42;;;;;;;1.55;0.75;;;;;;;25.08;31.51;99618.50;1674473;84;21619;-63
2022/09/01 11:50:20;;;;;;;0.98;0.70;;;;;;;24.94;31.39;99611.87;1672744;83;21530;-63
2022/09/01 11:53:10;;;;;;;1.17;0.70;;;;;;;24.85;31.13;99611.48;1688953;83;21451;-61
2022/09/01 11:55:42;;;;;;;1.42;1.00;;;;;;;24.79;30.78;99612.95;1687915;82;21467;-63
2022/09/01 11:58:31;;;;;;;2.55;0.85;;;;;;;24.57;30.63;99608.09;1687014;83;21885;-62
2022/09/01 12:01:24;;;;;;;2.40;1.15;;;;;;;24.58;31.03;99616.48;1731805;80;21080;-63